Time;durP1;ratioP1;P1;durP2;ratioP2;P2;SDS_P1;SDS_P2;PMS_P1;PMS_P2;Temp;Humidity;BMP_temperature;BMP_pressure;BME280_temperature;BME280_humidity;BME280_pressure;Samples;Min_cycle;Max_cycle;Signal;HPM_P1;HPM_P2
2021/08/16 00:00:09;;;;;;;6.90;4.70;;;19.30;99.90;;;;;;5074495;28;20191;-65
2021/08/16 00:02:35;;;;;;;5.10;4.17;;;19.30;99.90;;;;;;5061301;28;20785;-62
2021/08/16 00:05:01;;;;;;;5.70;5.10;;;19.30;99.90;;;;;;5054534;28;20407;-62
2021/08/16 00:07:27;;;;;;;5.53;5.00;;;19.30;99.90;;;;;;5054138;28;20405;-63
2021/08/16 00:09:53;;;;;;;5.53;5.03;;;19.30;99.90;;;;;;5054259;28;20871;-63
2021/08/16 00:12:18;;;;;;;7.70;4.97;;;19.30;99.90;;;;;;5054265;28;20183;-66
2021/08/16 00:14:44;;;;;;;5.77;5.20;;;19.40;99.90;;;;;;5054063;28;20261;-62
2021/08/16 00:17:10;;;;;;;9.00;5.93;;;19.40;99.90;;;;;;5053550;28;20728;-66
2021/08/16 00:19:36;;;;;;;7.40;5.33;;;19.40;99.90;;;;;;5054021;28;20198;-65
2021/08/16 00:22:03;;;;;;;5.30;4.30;;;19.40;99.90;;;;;;5054151;28;20760;-64
2021/08/16 00:24:28;;;;;;;7.40;5.90;;;19.40;99.90;;;;;;5053975;28;20173;-63
2021/08/16 00:26:54;;;;;;;5.77;4.90;;;19.40;99.90;;;;;;5053542;28;20430;-62
2021/08/16 00:29:20;;;;;;;5.90;5.13;;;19.40;99.90;;;;;;5052483;28;20287;-62
2021/08/16 00:31:45;;;;;;;7.80;5.10;;;19.40;99.90;;;;;;5070932;28;20274;-63
2021/08/16 00:34:11;;;;;;;5.87;5.23;;;19.40;99.90;;;;;;5074065;28;20191;-65
2021/08/16 00:36:37;;;;;;;4.77;4.33;;;19.40;99.90;;;;;;5073394;28;20333;-63
2021/08/16 00:39:03;;;;;;;5.13;4.63;;;19.50;99.90;;;;;;5073683;28;20185;-65
2021/08/16 00:41:31;;;;;;;6.00;4.83;;;19.40;99.90;;;;;;5073521;28;20192;-65
2021/08/16 00:43:57;;;;;;;6.93;5.73;;;19.50;99.90;;;;;;5073738;28;20418;-64
2021/08/16 00:46:23;;;;;;;5.97;4.47;;;19.50;99.90;;;;;;5073325;28;20807;-63
2021/08/16 00:48:49;;;;;;;5.03;4.60;;;19.50;99.90;;;;;;5073117;28;20520;-66
2021/08/16 00:51:15;;;;;;;5.77;4.93;;;19.50;99.90;;;;;;5073576;28;20502;-64
2021/08/16 00:53:41;;;;;;;6.40;4.10;;;19.50;99.90;;;;;;5072309;28;20169;-65
2021/08/16 00:56:10;;;;;;;6.77;5.63;;;19.60;99.90;;;;;;5073430;28;21051;-63
2021/08/16 00:58:38;;;;;;;4.53;4.10;;;19.60;99.90;;;;;;5073020;28;20481;-64
2021/08/16 01:01:04;;;;;;;6.10;5.07;;;19.60;99.90;;;;;;5057022;28;20913;-64
2021/08/16 01:03:29;;;;;;;4.70;4.27;;;19.60;99.90;;;;;;5053677;28;20411;-63
2021/08/16 01:05:55;;;;;;;5.23;4.60;;;19.60;99.90;;;;;;5053603;28;20255;-64
2021/08/16 01:08:22;;;;;;;8.73;5.93;;;19.60;99.90;;;;;;5071964;28;20605;-66
2021/08/16 01:10:54;;;;;;;6.30;4.70;;;19.50;99.90;;;;;;5073169;28;20790;-64
2021/08/16 01:13:21;;;;;;;9.73;5.03;;;19.50;99.90;;;;;;5054875;28;20811;-62
2021/08/16 01:16:00;;;;;;;5.37;4.43;;;19.40;99.90;;;;;;5053201;28;20491;-65
2021/08/16 01:18:26;;;;;;;6.47;4.93;;;19.40;99.90;;;;;;5052688;28;20436;-65
2021/08/16 01:20:53;;;;;;;5.50;4.50;;;19.40;99.90;;;;;;5053238;28;20434;-65
2021/08/16 01:23:20;;;;;;;6.33;4.20;;;19.40;99.90;;;;;;5053191;28;20768;-62
2021/08/16 01:25:47;;;;;;;7.90;4.83;;;19.30;99.90;;;;;;5052918;28;20493;-65
2021/08/16 01:28:16;;;;;;;6.97;4.33;;;19.30;99.90;;;;;;5052722;28;20902;-62
2021/08/16 01:30:43;;;;;;;8.00;5.03;;;19.40;99.90;;;;;;5053192;28;20826;-65
2021/08/16 01:33:08;;;;;;;5.90;4.87;;;19.40;99.90;;;;;;5052998;28;20814;-63
2021/08/16 01:35:34;;;;;;;6.67;4.50;;;19.30;99.90;;;;;;5052739;28;20405;-64
2021/08/16 01:38:00;;;;;;;7.70;5.10;;;19.40;99.90;;;;;;5052589;28;20836;-63
2021/08/16 01:40:26;;;;;;;5.77;5.17;;;19.30;99.90;;;;;;5052843;28;20171;-66
2021/08/16 01:42:52;;;;;;;4.87;4.40;;;19.30;99.90;;;;;;5072342;28;20177;-64
2021/08/16 01:45:17;;;;;;;6.10;4.20;;;19.30;99.90;;;;;;5072970;28;20452;-63
2021/08/16 01:47:43;;;;;;;6.30;5.37;;;19.30;99.90;;;;;;5072389;28;20185;-64
2021/08/16 01:50:09;;;;;;;5.50;4.60;;;19.20;99.90;;;;;;5072966;28;20184;-62
2021/08/16 01:52:35;;;;;;;6.80;4.53;;;19.20;99.90;;;;;;5059729;28;20208;-65
2021/08/16 01:55:01;;;;;;;6.20;5.03;;;19.10;99.90;;;;;;5053009;28;20408;-65
2021/08/16 01:57:26;;;;;;;5.20;4.70;;;19.10;99.90;;;;;;5052197;28;20664;-61
2021/08/16 01:59:52;;;;;;;8.00;6.10;;;19.10;99.90;;;;;;5051444;28;20430;-65
2021/08/16 02:02:18;;;;;;;4.83;4.30;;;19.10;99.90;;;;;;5052701;28;20176;-66
2021/08/16 02:04:47;;;;;;;7.40;5.80;;;19.10;99.90;;;;;;5052740;28;20517;-65
2021/08/16 02:07:13;;;;;;;6.00;5.40;;;19.10;99.90;;;;;;5064040;28;20180;-65
2021/08/16 02:09:39;;;;;;;7.27;4.57;;;19.10;99.90;;;;;;5072657;28;20793;-63
2021/08/16 02:12:05;;;;;;;5.80;5.20;;;19.10;99.90;;;;;;5072672;28;20633;-65
2021/08/16 02:14:30;;;;;;;5.40;4.67;;;19.10;99.90;;;;;;5075790;28;20172;-62
2021/08/16 02:16:56;;;;;;;6.63;5.93;;;19.10;99.90;;;;;;5075871;28;20516;-64
2021/08/16 02:19:22;;;;;;;5.03;4.50;;;19.10;99.90;;;;;;5076314;28;20200;-65
2021/08/16 02:21:47;;;;;;;5.07;4.57;;;19.10;99.90;;;;;;5057994;28;20181;-65
2021/08/16 02:24:13;;;;;;;7.77;5.43;;;19.10;99.90;;;;;;5056225;28;20498;-63
2021/08/16 02:26:39;;;;;;;17.43;5.50;;;19.20;99.90;;;;;;5055933;28;20232;-65
2021/08/16 02:29:05;;;;;;;8.67;6.03;;;19.20;99.90;;;;;;5056122;28;20567;-66
2021/08/16 02:31:31;;;;;;;6.20;5.43;;;19.30;99.90;;;;;;5056101;28;20194;-64
2021/08/16 02:33:57;;;;;;;6.53;5.93;;;19.40;99.90;;;;;;5056081;28;20412;-65
2021/08/16 02:36:23;;;;;;;12.00;6.10;;;19.40;99.90;;;;;;5056974;28;20483;-64
2021/08/16 02:38:48;;;;;;;5.30;4.80;;;19.50;99.90;;;;;;5055486;28;20195;-66
2021/08/16 02:41:14;;;;;;;9.10;6.77;;;19.50;99.90;;;;;;5055993;28;20179;-64
2021/08/16 02:43:40;;;;;;;8.50;7.13;;;19.60;99.90;;;;;;5055956;28;20176;-68
2021/08/16 02:46:06;;;;;;;8.90;7.70;;;19.70;99.90;;;;;;5055774;28;20193;-63
2021/08/16 02:48:31;;;;;;;8.20;6.57;;;19.80;99.90;;;;;;5055216;28;20493;-66
2021/08/16 02:50:57;;;;;;;10.67;7.93;;;19.90;99.90;;;;;;5055566;28;20265;-63
2021/08/16 02:53:22;;;;;;;13.03;7.40;;;20.00;99.90;;;;;;5055525;28;20185;-62
2021/08/16 02:55:48;;;;;;;9.53;7.37;;;20.10;99.90;;;;;;5054316;28;20227;-65
2021/08/16 02:58:14;;;;;;;8.93;7.20;;;20.20;99.90;;;;;;5055226;28;20304;-65
2021/08/16 03:00:39;;;;;;;10.23;7.17;;;20.30;99.90;;;;;;5055576;28;20174;-66
2021/08/16 03:03:05;;;;;;;8.90;6.40;;;20.30;99.90;;;;;;5055612;28;20569;-63
2021/08/16 03:05:31;;;;;;;7.10;6.27;;;20.40;99.90;;;;;;5072959;28;20169;-66
2021/08/16 03:07:57;;;;;;;8.73;6.53;;;20.40;99.90;;;;;;5075165;28;20177;-62
2021/08/16 03:10:22;;;;;;;6.93;6.23;;;20.50;99.90;;;;;;5075398;28;20406;-66
2021/08/16 03:12:48;;;;;;;7.33;6.40;;;20.50;99.90;;;;;;5065333;28;20170;-66
2021/08/16 03:15:13;;;;;;;8.57;6.47;;;20.50;99.90;;;;;;5055467;28;20315;-67
2021/08/16 03:17:39;;;;;;;9.50;6.00;;;20.60;99.90;;;;;;5054701;28;20202;-62
2021/08/16 03:20:06;;;;;;;9.27;5.60;;;20.60;99.90;;;;;;5055031;28;20246;-65
2021/08/16 03:22:32;;;;;;;6.03;5.00;;;20.70;99.90;;;;;;5055147;28;20239;-64
2021/08/16 03:24:57;;;;;;;5.57;5.07;;;20.70;99.90;;;;;;5068856;28;20857;-62
2021/08/16 03:27:23;;;;;;;4.90;4.40;;;20.70;99.90;;;;;;5074601;28;20173;-64
2021/08/16 03:29:49;;;;;;;7.00;5.07;;;20.70;99.90;;;;;;5074614;28;20254;-63
2021/08/16 03:32:14;;;;;;;6.00;5.40;;;20.70;99.90;;;;;;5074771;28;20620;-63
2021/08/16 03:34:40;;;;;;;5.13;4.63;;;20.80;99.90;;;;;;5075305;28;20266;-63
2021/08/16 03:37:06;;;;;;;6.53;4.87;;;20.80;99.90;;;;;;5074377;28;20197;-64
2021/08/16 03:39:32;;;;;;;5.40;4.90;;;20.80;99.90;;;;;;5074520;28;20773;-62
2021/08/16 03:41:58;;;;;;;4.83;4.40;;;20.80;99.90;;;;;;5074874;28;20173;-60
2021/08/16 03:44:23;;;;;;;13.73;5.00;;;20.80;99.90;;;;;;5074588;28;20635;-63
2021/08/16 03:46:49;;;;;;;6.90;4.80;;;20.70;99.90;;;;;;5074454;28;20415;-62
2021/08/16 03:49:14;;;;;;;7.50;4.63;;;20.70;99.90;;;;;;5074608;28;20276;-64
2021/08/16 03:51:40;;;;;;;5.90;5.10;;;20.70;99.90;;;;;;5073884;28;20181;-65
2021/08/16 03:54:06;;;;;;;5.43;4.23;;;20.70;99.90;;;;;;5054302;28;20263;-65
2021/08/16 03:56:32;;;;;;;5.30;4.80;;;20.70;99.90;;;;;;5054016;28;20211;-65
2021/08/16 03:58:57;;;;;;;6.80;5.30;;;20.70;99.90;;;;;;5054255;28;20424;-65
2021/08/16 04:01:23;;;;;;;5.53;4.70;;;20.70;99.90;;;;;;5057213;28;20236;-63
2021/08/16 04:03:48;;;;;;;6.53;5.93;;;20.60;99.90;;;;;;5074439;28;20199;-66
2021/08/16 04:06:14;;;;;;;5.27;4.37;;;20.60;99.90;;;;;;5074470;28;20605;-66
2021/08/16 04:08:40;;;;;;;5.30;4.70;;;20.50;99.90;;;;;;5073841;28;20200;-66
2021/08/16 04:11:11;;;;;;;5.17;4.70;;;20.60;99.90;;;;;;5074028;28;20529;-63
2021/08/16 04:13:37;;;;;;;4.57;4.10;;;20.50;99.90;;;;;;5055443;28;20420;-65
2021/08/16 04:16:03;;;;;;;6.90;4.77;;;20.60;99.90;;;;;;5066483;28;20474;-64
2021/08/16 04:18:29;;;;;;;5.50;5.00;;;20.50;99.90;;;;;;5073552;28;20502;-66
2021/08/16 04:20:54;;;;;;;8.10;5.20;;;20.50;99.90;;;;;;5074105;28;20490;-65
2021/08/16 04:23:20;;;;;;;6.10;5.33;;;20.50;99.90;;;;;;5074042;28;20429;-61
2021/08/16 04:25:46;;;;;;;8.80;6.20;;;20.40;99.90;;;;;;5074098;28;20623;-63
2021/08/16 04:28:12;;;;;;;8.10;5.60;;;20.40;99.90;;;;;;5071616;28;20188;-60
2021/08/16 04:30:37;;;;;;;9.20;5.90;;;20.40;99.90;;;;;;5072385;28;20519;-62
2021/08/16 04:33:03;;;;;;;7.97;5.70;;;20.30;99.90;;;;;;5073472;28;20558;-62
2021/08/16 04:35:29;;;;;;;6.47;5.13;;;20.30;99.90;;;;;;5073575;28;20539;-65
2021/08/16 04:37:54;;;;;;;6.80;6.20;;;20.20;99.90;;;;;;5073330;28;20264;-67
2021/08/16 04:40:20;;;;;;;10.30;5.30;;;20.20;99.90;;;;;;5073639;28;20753;-63
2021/08/16 04:42:46;;;;;;;7.67;5.60;;;20.20;99.90;;;;;;5073369;28;20230;-62
2021/08/16 04:45:12;;;;;;;7.47;5.60;;;20.20;99.90;;;;;;5073632;28;20279;-67
2021/08/16 04:47:40;;;;;;;9.53;6.70;;;20.20;99.90;;;;;;5073014;28;20169;-65
2021/08/16 04:50:06;;;;;;;7.50;6.27;;;20.20;99.90;;;;;;5073553;28;20431;-66
2021/08/16 04:52:32;;;;;;;7.83;5.90;;;20.20;99.90;;;;;;5073413;28;20486;-62
2021/08/16 04:54:58;;;;;;;7.00;5.57;;;20.20;99.90;;;;;;5072449;28;20503;-63
2021/08/16 04:57:30;;;;;;;7.93;5.80;;;20.30;99.90;;;;;;5052974;28;20280;-67
2021/08/16 04:59:56;;;;;;;10.17;6.30;;;20.30;99.90;;;;;;5053397;28;20225;-63
2021/08/16 05:02:22;;;;;;;6.10;5.50;;;20.40;99.90;;;;;;5053162;28;20426;-65
2021/08/16 05:04:53;;;;;;;7.23;4.60;;;20.40;99.90;;;;;;5053418;28;20412;-62
2021/08/16 05:07:19;;;;;;;5.53;4.93;;;20.40;99.90;;;;;;5053017;28;20184;-64
2021/08/16 05:09:44;;;;;;;5.60;5.10;;;20.40;99.90;;;;;;5052998;28;20778;-63
2021/08/16 05:12:10;;;;;;;5.33;4.83;;;20.50;99.90;;;;;;5062531;28;20230;-67
2021/08/16 05:14:35;;;;;;;6.87;5.53;;;20.50;99.90;;;;;;5073275;28;20628;-62
2021/08/16 05:17:01;;;;;;;5.10;4.67;;;20.50;99.90;;;;;;5073020;28;20207;-64
2021/08/16 05:19:27;;;;;;;10.00;5.00;;;20.50;99.90;;;;;;5073229;28;20192;-63
2021/08/16 05:21:52;;;;;;;6.47;5.10;;;20.60;99.90;;;;;;5073365;28;20708;-65
2021/08/16 05:24:18;;;;;;;5.13;3.93;;;20.70;99.90;;;;;;5073109;28;20520;-63
2021/08/16 05:26:44;;;;;;;4.97;4.37;;;20.70;99.90;;;;;;5053286;28;20640;-65
2021/08/16 05:29:10;;;;;;;4.53;4.13;;;20.70;99.90;;;;;;5053047;28;20424;-65
2021/08/16 05:31:35;;;;;;;6.20;4.93;;;20.80;99.90;;;;;;5052787;28;20193;-63
2021/08/16 05:34:01;;;;;;;6.73;5.00;;;20.80;99.90;;;;;;5053185;28;20177;-67
2021/08/16 05:36:27;;;;;;;14.70;4.60;;;20.90;99.90;;;;;;5053071;28;20228;-63
2021/08/16 05:38:52;;;;;;;5.57;4.73;;;21.00;99.90;;;;;;5052585;28;20708;-66
2021/08/16 05:41:18;;;;;;;6.50;4.33;;;21.10;99.90;;;;;;5067830;28;20547;-63
2021/08/16 05:43:43;;;;;;;5.57;3.80;;;21.20;99.90;;;;;;5062423;28;20169;-63
2021/08/16 05:46:09;;;;;;;6.67;4.60;;;21.20;99.90;;;;;;5062551;28;20636;-60
2021/08/16 05:48:35;;;;;;;4.37;4.00;;;21.30;99.90;;;;;;5054028;28;20189;-64
2021/08/16 05:51:00;;;;;;;5.47;3.53;;;21.20;99.90;;;;;;5056889;28;20173;-63
2021/08/16 05:53:26;;;;;;;5.00;4.50;;;21.20;99.90;;;;;;5076643;28;20229;-63
2021/08/16 05:55:52;;;;;;;4.73;3.80;;;21.20;99.90;;;;;;5076603;28;20239;-63
2021/08/16 05:58:18;;;;;;;4.50;4.10;;;21.10;99.90;;;;;;5076089;28;20189;-65
2021/08/16 06:00:43;;;;;;;4.53;4.13;;;21.10;99.90;;;;;;5076557;28;20490;-63
2021/08/16 06:03:09;;;;;;;4.23;3.80;;;21.10;99.90;;;;;;5058579;28;20180;-62
2021/08/16 06:05:35;;;;;;;5.93;3.57;;;21.00;99.90;;;;;;5056579;28;20698;-60
2021/08/16 06:08:00;;;;;;;4.20;3.80;;;21.00;99.90;;;;;;5055962;28;20265;-65
2021/08/16 06:10:26;;;;;;;3.40;3.10;;;21.00;99.90;;;;;;5056500;28;20169;-63
2021/08/16 06:12:52;;;;;;;5.40;4.40;;;21.00;99.90;;;;;;5056420;28;20177;-64
2021/08/16 06:15:18;;;;;;;4.47;3.40;;;21.00;99.90;;;;;;5056197;28;20183;-64
2021/08/16 06:17:43;;;;;;;3.60;3.30;;;21.00;99.90;;;;;;5055800;28;20558;-64
2021/08/16 06:20:11;;;;;;;3.27;2.90;;;21.00;99.90;;;;;;5056224;28;20177;-66
2021/08/16 06:22:37;;;;;;;5.97;3.77;;;21.00;99.90;;;;;;5056238;28;20177;-62
2021/08/16 06:25:03;;;;;;;3.40;2.90;;;21.10;99.90;;;;;;5056225;28;20436;-64
2021/08/16 06:27:29;;;;;;;5.67;4.07;;;21.40;99.90;;;;;;5055649;28;20451;-66
2021/08/16 06:29:54;;;;;;;5.10;2.47;;;21.50;99.90;;;;;;5056729;28;20439;-65
2021/08/16 06:32:20;;;;;;;2.80;2.50;;;21.80;99.90;;;;;;5075384;28;20204;-63
2021/08/16 06:34:46;;;;;;;4.07;2.77;;;21.90;99.90;;;;;;5076194;28;20189;-66
2021/08/16 06:37:11;;;;;;;3.47;2.90;;;22.00;99.90;;;;;;5075648;28;20200;-67
2021/08/16 06:39:37;;;;;;;4.13;2.83;;;22.10;99.90;;;;;;5075777;28;20591;-63
2021/08/16 06:42:03;;;;;;;3.73;2.60;;;22.30;99.90;;;;;;5076047;28;20515;-66
2021/08/16 06:44:30;;;;;;;2.50;2.30;;;22.50;99.90;;;;;;5075911;28;20199;-66
2021/08/16 06:46:55;;;;;;;3.37;2.50;;;22.70;99.90;;;;;;5054236;28;20618;-61
2021/08/16 06:49:22;;;;;;;3.10;2.80;;;23.00;99.90;;;;;;5055608;28;20473;-61
2021/08/16 06:51:47;;;;;;;9.20;2.60;;;23.20;99.90;;;;;;5055917;28;20193;-63
2021/08/16 06:54:13;;;;;;;2.33;2.10;;;23.40;99.90;;;;;;5054383;28;20591;-62
2021/08/16 06:56:39;;;;;;;3.23;2.93;;;23.70;99.90;;;;;;5054775;28;20217;-62
2021/08/16 06:59:04;;;;;;;7.07;2.83;;;23.90;99.90;;;;;;5055030;28;20655;-65
2021/08/16 07:01:30;;;;;;;2.70;2.50;;;23.80;99.90;;;;;;5055404;28;20198;-63
2021/08/16 07:03:58;;;;;;;5.40;2.77;;;23.80;99.90;;;;;;5055241;28;20551;-66
2021/08/16 07:06:25;;;;;;;2.60;2.40;;;23.70;99.90;;;;;;5055267;28;20419;-64
2021/08/16 07:08:51;;;;;;;2.77;2.50;;;23.50;99.90;;;;;;5054656;28;20428;-66
2021/08/16 07:11:17;;;;;;;4.00;2.33;;;23.40;99.90;;;;;;5055377;28;20477;-62
2021/08/16 07:13:43;;;;;;;3.10;2.80;;;23.20;99.90;;;;;;5055101;28;20462;-67
2021/08/16 07:16:08;;;;;;;3.23;2.80;;;23.10;99.90;;;;;;5054995;28;20442;-63
2021/08/16 07:18:34;;;;;;;2.73;2.50;;;23.10;99.90;;;;;;5054519;28;20190;-60
2021/08/16 07:21:05;;;;;;;2.30;1.90;;;23.10;99.90;;;;;;5055236;28;20180;-61
2021/08/16 07:23:32;;;;;;;2.10;1.67;;;23.30;99.90;;;;;;5054752;28;20538;-63
2021/08/16 07:25:58;;;;;;;3.70;2.23;;;23.50;99.90;;;;;;5054872;28;20889;-62
2021/08/16 07:28:29;;;;;;;4.80;2.30;;;23.50;99.90;;;;;;5058308;28;20431;-62
2021/08/16 07:30:56;;;;;;;2.90;2.37;;;23.40;99.90;;;;;;5074790;28;20439;-64
2021/08/16 07:33:21;;;;;;;2.50;2.17;;;23.20;99.90;;;;;;5074685;28;20519;-64
2021/08/16 07:35:47;;;;;;;3.57;3.37;;;23.10;99.90;;;;;;5074705;28;20435;-61
2021/08/16 07:38:13;;;;;;;4.70;2.93;;;23.00;99.90;;;;;;5072695;28;20192;-61
2021/08/16 07:40:38;;;;;;;2.80;2.60;;;22.90;99.90;;;;;;5074001;28;20177;-63
2021/08/16 07:43:04;;;;;;;3.30;2.80;;;22.90;99.90;;;;;;5073851;28;20659;-60
2021/08/16 07:45:30;;;;;;;4.40;2.53;;;23.00;99.90;;;;;;5074730;28;20169;-63
2021/08/16 07:47:56;;;;;;;3.20;2.37;;;23.00;99.90;;;;;;5074020;28;20232;-60
2021/08/16 07:50:22;;;;;;;2.50;2.30;;;23.00;99.90;;;;;;5074677;28;20183;-65
2021/08/16 07:52:48;;;;;;;3.50;2.67;;;23.10;99.90;;;;;;5074392;28;20800;-62
2021/08/16 07:55:14;;;;;;;3.10;2.73;;;23.10;99.90;;;;;;5074296;28;20406;-65
2021/08/16 07:57:39;;;;;;;7.03;2.77;;;23.10;99.90;;;;;;5070426;28;20524;-61
2021/08/16 08:00:08;;;;;;;3.23;2.63;;;23.10;99.90;;;;;;5072960;28;20254;-64
2021/08/16 08:02:43;;;;;;;2.40;2.23;;;23.20;99.90;;;;;;5073374;28;20237;-62
2021/08/16 08:05:14;;;;;;;2.93;2.70;;;23.20;99.90;;;;;;5073714;28;20811;-64
2021/08/16 08:07:41;;;;;;;2.30;2.20;;;23.30;99.90;;;;;;5073740;28;20436;-60
2021/08/16 08:10:07;;;;;;;6.40;2.70;;;23.30;99.90;;;;;;5073654;28;20440;-61
2021/08/16 08:12:33;;;;;;;2.13;1.93;;;23.20;99.90;;;;;;5073453;28;20757;-61
2021/08/16 08:14:59;;;;;;;2.30;1.90;;;23.20;99.90;;;;;;5073901;28;20422;-63
2021/08/16 08:17:24;;;;;;;1.97;1.87;;;23.20;99.90;;;;;;5071953;28;20670;-67
2021/08/16 08:19:51;;;;;;;3.63;2.60;;;23.20;99.90;;;;;;5073832;28;20543;-61
2021/08/16 08:22:17;;;;;;;3.33;3.03;;;23.10;99.90;;;;;;5073933;28;20263;-65
2021/08/16 08:24:43;;;;;;;3.47;2.47;;;23.00;99.90;;;;;;5073783;28;20381;-62
2021/08/16 08:27:09;;;;;;;2.30;2.10;;;22.90;99.90;;;;;;5073483;28;20410;-63
2021/08/16 08:29:34;;;;;;;3.80;3.10;;;22.90;99.90;;;;;;5074060;28;20420;-61
2021/08/16 08:32:00;;;;;;;4.07;2.30;;;23.00;99.90;;;;;;5053967;28;20237;-66
2021/08/16 08:34:25;;;;;;;2.07;1.73;;;23.10;99.90;;;;;;5052400;28;20174;-62
2021/08/16 08:36:51;;;;;;;3.10;2.37;;;23.30;99.90;;;;;;5053093;28;20235;-65
2021/08/16 08:39:17;;;;;;;2.30;2.10;;;23.80;99.90;;;;;;5053641;28;20185;-61
2021/08/16 08:41:45;;;;;;;3.10;2.33;;;24.70;99.90;;;;;;5053662;28;20167;-65
2021/08/16 08:44:13;;;;;;;2.33;2.13;;;25.80;99.90;;;;;;5053607;28;20220;-64
2021/08/16 08:46:40;;;;;;;2.47;2.20;;;27.10;98.60;;;;;;5053227;28;20423;-63
2021/08/16 08:49:08;;;;;;;3.27;2.43;;;28.60;96.40;;;;;;5053486;28;20554;-63
2021/08/16 08:51:37;;;;;;;2.20;2.00;;;29.70;93.50;;;;;;5054578;28;20457;-66
2021/08/16 08:54:07;;;;;;;2.27;2.03;;;30.20;91.50;;;;;;5053357;28;20889;-62
2021/08/16 08:56:34;;;;;;;3.10;2.47;;;29.80;90.50;;;;;;5053156;28;20563;-67
2021/08/16 08:58:59;;;;;;;3.23;2.57;;;29.20;91.10;;;;;;5053116;28;20486;-63
2021/08/16 09:01:26;;;;;;;4.17;2.77;;;28.50;91.70;;;;;;5053346;28;20418;-61
2021/08/16 09:03:53;;;;;;;2.77;2.27;;;27.80;92.30;;;;;;5053576;28;20182;-63
2021/08/16 09:06:33;;;;;;;2.53;2.30;;;27.30;92.60;;;;;;5053522;28;20404;-65
2021/08/16 09:09:00;;;;;;;2.47;2.27;;;26.80;93.60;;;;;;5053192;28;20423;-64
2021/08/16 09:11:27;;;;;;;2.10;2.00;;;26.30;94.30;;;;;;5051961;28;20469;-62
2021/08/16 09:13:58;;;;;;;2.37;2.17;;;26.10;95.30;;;;;;5053338;28;20485;-66
2021/08/16 09:16:27;;;;;;;2.70;2.47;;;26.10;94.80;;;;;;5068183;28;20906;-64
2021/08/16 09:18:53;;;;;;;3.60;2.90;;;26.10;94.90;;;;;;5052730;28;20446;-63
2021/08/16 09:21:34;;;;;;;4.00;2.50;;;26.00;94.80;;;;;;5053164;28;20405;-63
2021/08/16 09:24:00;;;;;;;2.10;1.90;;;25.70;95.20;;;;;;5053306;28;20397;-62
2021/08/16 09:26:36;;;;;;;2.87;2.43;;;25.40;95.40;;;;;;5051733;28;20397;-65
2021/08/16 09:29:12;;;;;;;2.40;2.20;;;25.20;95.80;;;;;;5052821;28;20421;-63
2021/08/16 09:31:48;;;;;;;3.03;2.20;;;25.00;96.40;;;;;;5053217;28;20533;-65
2021/08/16 09:34:14;;;;;;;4.20;2.70;;;24.80;96.40;;;;;;5053027;28;20424;-61
2021/08/16 09:36:41;;;;;;;2.57;2.37;;;24.80;96.70;;;;;;5052632;28;20943;-68
2021/08/16 09:39:23;;;;;;;1.90;1.80;;;24.80;96.70;;;;;;5052721;28;20232;-62
2021/08/16 09:41:57;;;;;;;6.63;2.60;;;24.60;96.40;;;;;;5053068;28;20397;-63
2021/08/16 09:44:24;;;;;;;1.83;1.73;;;24.50;96.40;;;;;;5058430;28;20422;-62
2021/08/16 09:47:01;;;;;;;2.10;1.83;;;24.60;96.40;;;;;;5072762;28;21237;-67
2021/08/16 09:49:27;;;;;;;3.27;2.60;;;24.70;96.20;;;;;;5072916;28;20560;-62
2021/08/16 09:52:11;;;;;;;7.33;2.17;;;24.70;95.70;;;;;;5072908;28;20419;-64
2021/08/16 09:54:39;;;;;;;2.80;1.93;;;24.50;96.30;;;;;;5073011;28;20433;-61
2021/08/16 09:57:06;;;;;;;3.00;2.73;;;24.40;96.90;;;;;;5065541;28;20975;-64
2021/08/16 09:59:33;;;;;;;2.40;2.20;;;24.20;98.00;;;;;;5052514;28;20428;-61
2021/08/16 10:01:59;;;;;;;2.80;2.17;;;23.90;97.20;;;;;;5052869;28;20712;-63
2021/08/16 10:04:25;;;;;;;2.17;1.80;;;23.80;97.00;;;;;;5052856;28;20424;-63
2021/08/16 10:06:56;;;;;;;6.40;2.47;;;23.50;97.60;;;;;;5052488;28;20419;-66
2021/08/16 10:09:24;;;;;;;5.60;1.93;;;23.30;97.40;;;;;;5052833;28;20289;-65
2021/08/16 10:11:50;;;;;;;3.27;2.30;;;23.20;98.20;;;;;;5052973;28;20415;-62
2021/08/16 10:14:19;;;;;;;2.07;1.73;;;23.20;98.40;;;;;;5052733;28;20749;-61
2021/08/16 10:16:49;;;;;;;2.30;1.70;;;23.30;98.70;;;;;;5050864;28;20501;-63
2021/08/16 10:19:27;;;;;;;2.47;2.27;;;23.30;98.70;;;;;;5061354;28;20572;-66
2021/08/16 10:21:58;;;;;;;7.10;2.30;;;23.20;97.80;;;;;;5072739;28;20417;-66
2021/08/16 10:24:28;;;;;;;4.80;1.70;;;23.40;98.10;;;;;;5072620;28;20408;-64
2021/08/16 10:26:59;;;;;;;4.77;2.23;;;23.50;98.10;;;;;;5072254;28;20441;-62
2021/08/16 10:29:24;;;;;;;2.47;2.27;;;23.80;97.80;;;;;;5072354;28;20409;-61
2021/08/16 10:31:52;;;;;;;3.70;1.70;;;24.20;94.90;;;;;;5072734;28;20415;-64
2021/08/16 10:34:25;;;;;;;3.13;1.77;;;24.40;94.50;;;;;;5073431;28;20268;-63
2021/08/16 10:36:59;;;;;;;2.90;1.67;;;24.50;94.60;;;;;;5075450;28;20422;-66
2021/08/16 10:39:36;;;;;;;4.03;2.00;;;24.80;94.90;;;;;;5076033;28;20505;-62
2021/08/16 10:42:08;;;;;;;2.37;2.00;;;25.20;94.80;;;;;;5076095;28;20398;-63
2021/08/16 10:44:43;;;;;;;2.43;2.23;;;25.40;94.60;;;;;;5076018;28;20423;-63
2021/08/16 10:47:11;;;;;;;2.33;2.13;;;25.40;95.00;;;;;;5072137;28;20418;-64
2021/08/16 10:49:39;;;;;;;2.70;1.50;;;25.20;94.20;;;;;;5055725;28;20804;-61
2021/08/16 10:52:17;;;;;;;2.87;2.20;;;25.10;93.90;;;;;;5055614;28;20917;-64
2021/08/16 10:54:42;;;;;;;3.17;1.90;;;25.00;94.20;;;;;;5055798;28;20416;-65
2021/08/16 10:57:10;;;;;;;6.80;4.30;;;25.10;94.20;;;;;;5055272;28;20457;-62
2021/08/16 10:59:37;;;;;;;2.23;2.10;;;25.10;93.70;;;;;;5054436;28;20192;-64
2021/08/16 11:02:03;;;;;;;3.93;2.27;;;25.00;93.60;;;;;;5056789;28;20471;-63
2021/08/16 11:04:31;;;;;;;3.47;2.07;;;24.80;93.40;;;;;;5055568;28;20449;-62
2021/08/16 11:07:04;;;;;;;3.07;1.93;;;24.90;93.60;;;;;;5054995;28;20391;-66
2021/08/16 11:09:32;;;;;;;1.90;1.50;;;24.80;93.50;;;;;;5055427;28;20548;-61
2021/08/16 11:12:06;;;;;;;3.27;1.70;;;24.70;94.20;;;;;;5055439;28;20450;-65
2021/08/16 11:14:34;;;;;;;2.13;1.60;;;24.50;94.10;;;;;;5055603;28;20386;-63
2021/08/16 11:17:01;;;;;;;2.50;2.23;;;24.40;94.40;;;;;;5060881;28;20455;-65
2021/08/16 11:19:38;;;;;;;2.33;2.23;;;24.20;94.70;;;;;;5075223;28;20405;-64
2021/08/16 11:22:04;;;;;;;2.33;1.70;;;24.10;95.20;;;;;;5075429;28;20381;-63
2021/08/16 11:24:34;;;;;;;4.20;1.70;;;24.30;96.10;;;;;;5075295;28;20786;-61
2021/08/16 11:27:04;;;;;;;1.80;1.70;;;24.50;95.70;;;;;;5075041;28;20196;-65
2021/08/16 11:29:30;;;;;;;3.23;2.20;;;24.60;94.70;;;;;;5075025;28;20490;-62
2021/08/16 11:32:03;;;;;;;8.13;2.33;;;24.50;94.30;;;;;;5074571;28;21013;-66
2021/08/16 11:34:31;;;;;;;2.23;2.03;;;24.40;94.10;;;;;;5075236;28;20591;-65
2021/08/16 11:36:58;;;;;;;2.90;2.60;;;24.50;95.00;;;;;;5074583;28;20446;-65
2021/08/16 11:39:29;;;;;;;2.93;1.97;;;24.70;94.70;;;;;;5074948;28;20485;-64
2021/08/16 11:41:59;;;;;;;3.30;1.80;;;24.60;93.50;;;;;;5074877;28;20467;-67
2021/08/16 11:44:26;;;;;;;3.23;2.00;;;24.40;93.60;;;;;;5074789;28;20388;-61
2021/08/16 11:46:52;;;;;;;1.40;1.30;;;24.20;94.10;;;;;;5054892;28;20771;-62
2021/08/16 11:49:18;;;;;;;3.10;1.63;;;24.00;94.10;;;;;;5054660;28;20427;-63
2021/08/16 11:51:45;;;;;;;1.90;1.70;;;24.00;94.20;;;;;;5054734;28;20166;-64
2021/08/16 11:54:22;;;;;;;6.17;2.33;;;24.10;95.50;;;;;;5054516;28;20495;-61
2021/08/16 11:56:53;;;;;;;2.83;1.93;;;24.40;95.10;;;;;;5053371;28;20487;-65
2021/08/16 11:59:19;;;;;;;2.70;1.77;;;24.90;95.10;;;;;;5054541;28;20428;-61
2021/08/16 12:01:45;;;;;;;1.50;1.40;;;25.20;94.90;;;;;;5066219;28;20418;-64
2021/08/16 12:04:12;;;;;;;2.20;1.77;;;25.40;94.20;;;;;;5054577;28;20375;-61
2021/08/16 12:06:38;;;;;;;4.33;1.83;;;25.50;93.60;;;;;;5053849;28;20490;-67
2021/08/16 12:09:08;;;;;;;2.70;2.10;;;25.50;93.80;;;;;;5053913;28;20422;-62
2021/08/16 12:11:35;;;;;;;2.17;2.07;;;25.40;92.80;;;;;;5054311;28;20450;-63
2021/08/16 12:14:01;;;;;;;2.00;1.90;;;25.40;92.80;;;;;;5054382;28;20387;-65
2021/08/16 12:16:35;;;;;;;6.10;2.13;;;25.50;93.60;;;;;;5054302;28;20510;-62
2021/08/16 12:19:02;;;;;;;2.27;2.00;;;25.50;92.90;;;;;;5054196;28;20452;-62
2021/08/16 12:21:28;;;;;;;2.47;1.70;;;25.40;92.10;;;;;;5054170;28;20729;-66
2021/08/16 12:23:56;;;;;;;2.43;1.87;;;25.30;92.90;;;;;;5052769;28;20407;-64
2021/08/16 12:26:31;;;;;;;1.60;1.50;;;25.20;93.80;;;;;;5054609;28;20178;-64
2021/08/16 12:28:56;;;;;;;2.23;2.13;;;25.20;93.00;;;;;;5053772;28;20461;-65
2021/08/16 12:31:24;;;;;;;2.50;2.30;;;25.20;93.20;;;;;;5072537;28;20477;-64
2021/08/16 12:33:56;;;;;;;2.27;1.90;;;25.20;93.30;;;;;;5073766;28;20177;-67
2021/08/16 12:36:26;;;;;;;2.00;1.77;;;25.30;93.50;;;;;;5073616;28;20430;-63
2021/08/16 12:39:00;;;;;;;3.33;2.67;;;25.40;93.70;;;;;;5073169;28;20423;-64
2021/08/16 12:41:29;;;;;;;2.83;1.70;;;25.60;92.50;;;;;;5073704;28;20406;-66
2021/08/16 12:43:54;;;;;;;1.70;1.60;;;25.50;92.30;;;;;;5073133;28;20377;-66